sensor_id;sensor_type;location;lat;lon;timestamp;temperature;humidity
27667;DHT22;15074;50.940;5.282;2023-01-09T00:02:19;6.80;99.90
27667;DHT22;15074;50.940;5.282;2023-01-09T00:04:45;6.80;99.90
27667;DHT22;15074;50.940;5.282;2023-01-09T00:07:10;6.80;99.90
27667;DHT22;15074;50.940;5.282;2023-01-09T00:09:36;6.80;99.90
27667;DHT22;15074;50.940;5.282;2023-01-09T00:12:02;6.80;99.90
27667;DHT22;15074;50.940;5.282;2023-01-09T00:14:28;6.70;99.90
27667;DHT22;15074;50.940;5.282;2023-01-09T00:16:54;6.70;99.90
27667;DHT22;15074;50.940;5.282;2023-01-09T00:19:20;6.70;99.90
27667;DHT22;15074;50.940;5.282;2023-01-09T00:21:46;6.70;99.90
27667;DHT22;15074;50.940;5.282;2023-01-09T00:24:11;6.70;99.90
27667;DHT22;15074;50.940;5.282;2023-01-09T00:26:37;6.60;99.90
27667;DHT22;15074;50.940;5.282;2023-01-09T00:29:03;6.60;99.90
27667;DHT22;15074;50.940;5.282;2023-01-09T00:31:29;6.60;99.90
27667;DHT22;15074;50.940;5.282;2023-01-09T00:34:00;6.50;99.90
27667;DHT22;15074;50.940;5.282;2023-01-09T00:36:27;6.50;99.90
27667;DHT22;15074;50.940;5.282;2023-01-09T00:38:52;6.50;99.90
27667;DHT22;15074;50.940;5.282;2023-01-09T00:41:27;6.50;99.90
27667;DHT22;15074;50.940;5.282;2023-01-09T00:43:57;6.40;99.90
27667;DHT22;15074;50.940;5.282;2023-01-09T00:46:28;6.50;99.90
27667;DHT22;15074;50.940;5.282;2023-01-09T00:48:55;6.40;99.90
27667;DHT22;15074;50.940;5.282;2023-01-09T00:51:21;6.40;99.90
27667;DHT22;15074;50.940;5.282;2023-01-09T00:53:49;6.40;99.90
27667;DHT22;15074;50.940;5.282;2023-01-09T00:56:17;6.50;99.90
27667;DHT22;15074;50.940;5.282;2023-01-09T00:58:44;6.40;99.90
27667;DHT22;15074;50.940;5.282;2023-01-09T01:01:10;6.40;99.90
27667;DHT22;15074;50.940;5.282;2023-01-09T01:03:36;6.40;99.90
27667;DHT22;15074;50.940;5.282;2023-01-09T01:06:02;6.30;99.90
27667;DHT22;15074;50.940;5.282;2023-01-09T01:08:46;6.40;99.90
27667;DHT22;15074;50.940;5.282;2023-01-09T01:11:12;6.30;99.90
27667;DHT22;15074;50.940;5.282;2023-01-09T01:13:39;6.30;99.90
27667;DHT22;15074;50.940;5.282;2023-01-09T01:16:07;6.30;99.90
27667;DHT22;15074;50.940;5.282;2023-01-09T01:18:33;6.30;99.90
27667;DHT22;15074;50.940;5.282;2023-01-09T01:20:59;6.30;99.90
27667;DHT22;15074;50.940;5.282;2023-01-09T01:23:25;6.30;99.90
27667;DHT22;15074;50.940;5.282;2023-01-09T01:25:51;6.30;99.90
27667;DHT22;15074;50.940;5.282;2023-01-09T01:28:17;6.30;99.90
27667;DHT22;15074;50.940;5.282;2023-01-09T01:30:44;6.30;99.90
27667;DHT22;15074;50.940;5.282;2023-01-09T01:33:10;6.30;99.90
27667;DHT22;15074;50.940;5.282;2023-01-09T01:35:36;6.20;99.90
27667;DHT22;15074;50.940;5.282;2023-01-09T01:38:02;6.20;99.90
27667;DHT22;15074;50.940;5.282;2023-01-09T01:40:28;6.20;99.90
27667;DHT22;15074;50.940;5.282;2023-01-09T01:42:55;6.20;99.90
27667;DHT22;15074;50.940;5.282;2023-01-09T01:45:23;6.20;99.90
27667;DHT22;15074;50.940;5.282;2023-01-09T01:48:08;6.10;99.90
27667;DHT22;15074;50.940;5.282;2023-01-09T01:50:47;6.10;99.90
27667;DHT22;15074;50.940;5.282;2023-01-09T01:53:18;6.10;99.90
27667;DHT22;15074;50.940;5.282;2023-01-09T01:59:25;6.00;99.90
27667;DHT22;15074;50.940;5.282;2023-01-09T02:01:51;6.00;99.90
27667;DHT22;15074;50.940;5.282;2023-01-09T02:04:18;6.00;99.90
27667;DHT22;15074;50.940;5.282;2023-01-09T02:06:48;6.00;99.90
27667;DHT22;15074;50.940;5.282;2023-01-09T02:09:14;6.00;99.90
27667;DHT22;15074;50.940;5.282;2023-01-09T02:11:46;6.00;99.90
27667;DHT22;15074;50.940;5.282;2023-01-09T02:14:14;6.00;99.90
27667;DHT22;15074;50.940;5.282;2023-01-09T02:25:51;5.90;99.90
27667;DHT22;15074;50.940;5.282;2023-01-09T02:42:51;5.90;99.90
27667;DHT22;15074;50.940;5.282;2023-01-09T03:09:32;5.80;99.90
27667;DHT22;15074;50.940;5.282;2023-01-09T03:12:09;5.90;99.90
27667;DHT22;15074;50.940;5.282;2023-01-09T03:14:39;5.90;99.90
27667;DHT22;15074;50.940;5.282;2023-01-09T03:20:46;6.00;99.90
27667;DHT22;15074;50.940;5.282;2023-01-09T03:26:31;6.20;99.90
27667;DHT22;15074;50.940;5.282;2023-01-09T03:28:58;6.30;99.90
27667;DHT22;15074;50.940;5.282;2023-01-09T03:31:24;6.30;99.90
27667;DHT22;15074;50.940;5.282;2023-01-09T03:33:49;6.40;99.90
27667;DHT22;15074;50.940;5.282;2023-01-09T03:36:35;6.40;99.90
27667;DHT22;15074;50.940;5.282;2023-01-09T03:39:00;6.40;99.90
27667;DHT22;15074;50.940;5.282;2023-01-09T03:41:26;6.50;99.90
27667;DHT22;15074;50.940;5.282;2023-01-09T03:43:52;6.60;99.90
27667;DHT22;15074;50.940;5.282;2023-01-09T03:49:44;6.70;99.90
27667;DHT22;15074;50.940;5.282;2023-01-09T03:52:28;6.70;99.90
27667;DHT22;15074;50.940;5.282;2023-01-09T03:54:54;6.80;99.90
27667;DHT22;15074;50.940;5.282;2023-01-09T03:57:39;6.80;99.90
27667;DHT22;15074;50.940;5.282;2023-01-09T04:00:05;6.90;99.90
27667;DHT22;15074;50.940;5.282;2023-01-09T04:02:32;6.90;99.90
27667;DHT22;15074;50.940;5.282;2023-01-09T04:15:28;7.00;99.90
27667;DHT22;15074;50.940;5.282;2023-01-09T04:17:54;7.00;99.90
27667;DHT22;15074;50.940;5.282;2023-01-09T04:20:19;7.00;99.90
27667;DHT22;15074;50.940;5.282;2023-01-09T04:22:45;7.00;99.90
27667;DHT22;15074;50.940;5.282;2023-01-09T04:25:11;7.10;99.90
27667;DHT22;15074;50.940;5.282;2023-01-09T04:27:37;7.10;99.90
27667;DHT22;15074;50.940;5.282;2023-01-09T04:30:04;7.20;99.90
27667;DHT22;15074;50.940;5.282;2023-01-09T04:32:29;7.20;99.90
27667;DHT22;15074;50.940;5.282;2023-01-09T04:37:40;7.20;99.90
27667;DHT22;15074;50.940;5.282;2023-01-09T04:40:06;7.10;99.90
27667;DHT22;15074;50.940;5.282;2023-01-09T04:42:36;7.20;99.90
27667;DHT22;15074;50.940;5.282;2023-01-09T04:51:46;7.30;99.90
27667;DHT22;15074;50.940;5.282;2023-01-09T04:54:12;7.30;99.90
27667;DHT22;15074;50.940;5.282;2023-01-09T04:56:38;7.30;99.90
27667;DHT22;15074;50.940;5.282;2023-01-09T04:59:04;7.30;99.90
27667;DHT22;15074;50.940;5.282;2023-01-09T05:01:30;7.40;99.90
27667;DHT22;15074;50.940;5.282;2023-01-09T05:03:56;7.40;99.90
27667;DHT22;15074;50.940;5.282;2023-01-09T05:06:22;7.40;99.90
27667;DHT22;15074;50.940;5.282;2023-01-09T05:08:48;7.40;99.90
27667;DHT22;15074;50.940;5.282;2023-01-09T05:11:13;7.40;99.90
27667;DHT22;15074;50.940;5.282;2023-01-09T05:13:39;7.50;99.90
27667;DHT22;15074;50.940;5.282;2023-01-09T05:16:05;7.50;99.90
27667;DHT22;15074;50.940;5.282;2023-01-09T05:21:27;7.60;99.90
27667;DHT22;15074;50.940;5.282;2023-01-09T05:23:53;7.50;99.90
27667;DHT22;15074;50.940;5.282;2023-01-09T05:26:20;7.60;99.90
27667;DHT22;15074;50.940;5.282;2023-01-09T05:28:53;7.60;99.90
27667;DHT22;15074;50.940;5.282;2023-01-09T05:31:20;7.70;99.90
27667;DHT22;15074;50.940;5.282;2023-01-09T05:33:46;7.60;99.90
27667;DHT22;15074;50.940;5.282;2023-01-09T05:36:12;7.60;99.90
27667;DHT22;15074;50.940;5.282;2023-01-09T05:38:38;7.60;99.90
27667;DHT22;15074;50.940;5.282;2023-01-09T05:41:04;7.70;99.90
27667;DHT22;15074;50.940;5.282;2023-01-09T05:43:30;7.70;99.90
27667;DHT22;15074;50.940;5.282;2023-01-09T05:45:55;7.60;99.90
27667;DHT22;15074;50.940;5.282;2023-01-09T05:48:21;7.70;99.90
27667;DHT22;15074;50.940;5.282;2023-01-09T05:50:47;7.70;99.90
27667;DHT22;15074;50.940;5.282;2023-01-09T05:53:12;7.70;99.90
27667;DHT22;15074;50.940;5.282;2023-01-09T05:55:38;7.80;99.90
27667;DHT22;15074;50.940;5.282;2023-01-09T05:58:04;7.90;99.90
27667;DHT22;15074;50.940;5.282;2023-01-09T06:00:30;7.80;99.90
27667;DHT22;15074;50.940;5.282;2023-01-09T06:02:56;7.90;99.90
27667;DHT22;15074;50.940;5.282;2023-01-09T06:05:21;7.90;99.90
27667;DHT22;15074;50.940;5.282;2023-01-09T06:07:47;7.80;99.90
27667;DHT22;15074;50.940;5.282;2023-01-09T06:10:14;7.80;99.90
27667;DHT22;15074;50.940;5.282;2023-01-09T06:12:40;7.80;99.90
27667;DHT22;15074;50.940;5.282;2023-01-09T06:15:07;7.80;99.90
27667;DHT22;15074;50.940;5.282;2023-01-09T06:17:33;7.80;99.90
27667;DHT22;15074;50.940;5.282;2023-01-09T06:19:58;7.90;99.90
27667;DHT22;15074;50.940;5.282;2023-01-09T06:22:24;7.90;99.90
27667;DHT22;15074;50.940;5.282;2023-01-09T06:24:50;7.80;99.90
27667;DHT22;15074;50.940;5.282;2023-01-09T06:27:15;7.90;99.90
27667;DHT22;15074;50.940;5.282;2023-01-09T06:29:41;7.90;99.90
27667;DHT22;15074;50.940;5.282;2023-01-09T06:32:07;7.80;99.90
27667;DHT22;15074;50.940;5.282;2023-01-09T06:34:32;7.80;99.90
27667;DHT22;15074;50.940;5.282;2023-01-09T06:36:58;7.80;99.90
27667;DHT22;15074;50.940;5.282;2023-01-09T06:39:24;7.80;99.90
27667;DHT22;15074;50.940;5.282;2023-01-09T06:41:49;7.80;99.90
27667;DHT22;15074;50.940;5.282;2023-01-09T06:44:15;7.80;99.90
27667;DHT22;15074;50.940;5.282;2023-01-09T06:46:41;7.80;99.90
27667;DHT22;15074;50.940;5.282;2023-01-09T06:49:08;7.80;99.90
27667;DHT22;15074;50.940;5.282;2023-01-09T06:51:34;7.80;99.90
27667;DHT22;15074;50.940;5.282;2023-01-09T06:53:59;7.80;99.90
27667;DHT22;15074;50.940;5.282;2023-01-09T06:56:25;7.80;99.90
27667;DHT22;15074;50.940;5.282;2023-01-09T06:58:51;7.80;99.90
27667;DHT22;15074;50.940;5.282;2023-01-09T07:01:16;7.80;99.90
27667;DHT22;15074;50.940;5.282;2023-01-09T07:03:42;7.80;99.90
27667;DHT22;15074;50.940;5.282;2023-01-09T07:06:08;7.90;99.90
27667;DHT22;15074;50.940;5.282;2023-01-09T07:08:34;7.90;99.90
27667;DHT22;15074;50.940;5.282;2023-01-09T07:11:00;7.90;99.90
27667;DHT22;15074;50.940;5.282;2023-01-09T07:13:26;7.90;99.90
27667;DHT22;15074;50.940;5.282;2023-01-09T07:15:51;7.80;99.90
27667;DHT22;15074;50.940;5.282;2023-01-09T07:18:18;7.90;99.90
27667;DHT22;15074;50.940;5.282;2023-01-09T07:20:44;7.80;99.90
27667;DHT22;15074;50.940;5.282;2023-01-09T07:23:11;7.90;99.90
27667;DHT22;15074;50.940;5.282;2023-01-09T07:25:37;7.90;99.90
27667;DHT22;15074;50.940;5.282;2023-01-09T07:28:04;7.90;99.90
27667;DHT22;15074;50.940;5.282;2023-01-09T07:30:29;7.90;99.90
27667;DHT22;15074;50.940;5.282;2023-01-09T07:32:55;7.90;99.90
27667;DHT22;15074;50.940;5.282;2023-01-09T07:35:21;7.90;99.90
27667;DHT22;15074;50.940;5.282;2023-01-09T07:37:46;7.90;99.90
27667;DHT22;15074;50.940;5.282;2023-01-09T07:40:12;7.90;99.90
27667;DHT22;15074;50.940;5.282;2023-01-09T07:42:38;7.90;99.90
27667;DHT22;15074;50.940;5.282;2023-01-09T07:45:04;7.90;99.90
27667;DHT22;15074;50.940;5.282;2023-01-09T07:47:30;7.90;99.90
27667;DHT22;15074;50.940;5.282;2023-01-09T07:49:56;7.90;99.90
27667;DHT22;15074;50.940;5.282;2023-01-09T07:52:21;7.90;99.90
27667;DHT22;15074;50.940;5.282;2023-01-09T07:54:47;7.90;99.90
27667;DHT22;15074;50.940;5.282;2023-01-09T07:57:13;7.90;99.90
27667;DHT22;15074;50.940;5.282;2023-01-09T07:59:39;7.90;99.90
27667;DHT22;15074;50.940;5.282;2023-01-09T08:02:04;8.00;99.90
27667;DHT22;15074;50.940;5.282;2023-01-09T08:04:31;8.00;99.90
27667;DHT22;15074;50.940;5.282;2023-01-09T08:06:57;8.00;99.90
27667;DHT22;15074;50.940;5.282;2023-01-09T08:09:23;7.90;99.90
27667;DHT22;15074;50.940;5.282;2023-01-09T08:11:50;8.00;99.90
27667;DHT22;15074;50.940;5.282;2023-01-09T08:14:16;7.90;99.90
27667;DHT22;15074;50.940;5.282;2023-01-09T08:16:42;7.90;99.90
27667;DHT22;15074;50.940;5.282;2023-01-09T08:19:07;7.90;99.90
27667;DHT22;15074;50.940;5.282;2023-01-09T08:21:37;7.90;99.90
27667;DHT22;15074;50.940;5.282;2023-01-09T08:24:03;7.90;99.90
27667;DHT22;15074;50.940;5.282;2023-01-09T08:26:29;7.90;99.90
27667;DHT22;15074;50.940;5.282;2023-01-09T08:28:54;7.90;99.90
27667;DHT22;15074;50.940;5.282;2023-01-09T08:31:20;7.90;99.90
27667;DHT22;15074;50.940;5.282;2023-01-09T08:33:46;8.00;99.90
27667;DHT22;15074;50.940;5.282;2023-01-09T08:36:12;8.00;99.90
27667;DHT22;15074;50.940;5.282;2023-01-09T08:38:38;8.00;99.90
27667;DHT22;15074;50.940;5.282;2023-01-09T08:41:03;8.00;99.90
27667;DHT22;15074;50.940;5.282;2023-01-09T08:43:51;8.00;99.90
27667;DHT22;15074;50.940;5.282;2023-01-09T08:46:35;8.10;99.90
27667;DHT22;15074;50.940;5.282;2023-01-09T08:49:20;8.20;99.90
27667;DHT22;15074;50.940;5.282;2023-01-09T08:51:46;8.30;99.90
27667;DHT22;15074;50.940;5.282;2023-01-09T08:54:11;8.40;99.90
27667;DHT22;15074;50.940;5.282;2023-01-09T08:56:37;8.40;99.90
27667;DHT22;15074;50.940;5.282;2023-01-09T08:59:03;8.50;99.90
27667;DHT22;15074;50.940;5.282;2023-01-09T09:01:29;8.50;99.90
27667;DHT22;15074;50.940;5.282;2023-01-09T09:03:54;8.70;99.90
27667;DHT22;15074;50.940;5.282;2023-01-09T09:06:20;8.70;99.90
27667;DHT22;15074;50.940;5.282;2023-01-09T09:08:45;8.80;99.90
27667;DHT22;15074;50.940;5.282;2023-01-09T09:11:11;8.70;99.90
27667;DHT22;15074;50.940;5.282;2023-01-09T09:13:37;8.50;99.90
27667;DHT22;15074;50.940;5.282;2023-01-09T09:16:02;8.40;99.90
27667;DHT22;15074;50.940;5.282;2023-01-09T09:18:28;8.30;99.90
27667;DHT22;15074;50.940;5.282;2023-01-09T09:20:54;8.30;99.90
27667;DHT22;15074;50.940;5.282;2023-01-09T09:23:19;8.20;99.90
27667;DHT22;15074;50.940;5.282;2023-01-09T09:25:47;8.20;99.90
27667;DHT22;15074;50.940;5.282;2023-01-09T09:28:12;8.20;99.90
27667;DHT22;15074;50.940;5.282;2023-01-09T09:30:38;8.20;99.90
27667;DHT22;15074;50.940;5.282;2023-01-09T09:33:04;8.20;99.90
27667;DHT22;15074;50.940;5.282;2023-01-09T09:35:31;8.20;99.90
27667;DHT22;15074;50.940;5.282;2023-01-09T09:38:00;8.30;99.90
27667;DHT22;15074;50.940;5.282;2023-01-09T09:46:43;8.20;99.90
27667;DHT22;15074;50.940;5.282;2023-01-09T09:49:17;8.20;99.90
27667;DHT22;15074;50.940;5.282;2023-01-09T09:54:39;8.20;99.90
27667;DHT22;15074;50.940;5.282;2023-01-09T09:57:12;8.10;99.90
27667;DHT22;15074;50.940;5.282;2023-01-09T09:59:40;8.20;99.90
27667;DHT22;15074;50.940;5.282;2023-01-09T10:04:39;8.10;99.90
27667;DHT22;15074;50.940;5.282;2023-01-09T10:07:15;8.10;99.90
27667;DHT22;15074;50.940;5.282;2023-01-09T10:09:54;8.00;99.90
27667;DHT22;15074;50.940;5.282;2023-01-09T10:14:53;7.90;99.90
27667;DHT22;15074;50.940;5.282;2023-01-09T10:18:00;8.00;99.90
27667;DHT22;15074;50.940;5.282;2023-01-09T10:20:36;8.00;99.90
27667;DHT22;15074;50.940;5.282;2023-01-09T10:23:45;8.10;99.90
27667;DHT22;15074;50.940;5.282;2023-01-09T10:26:15;8.10;99.90
27667;DHT22;15074;50.940;5.282;2023-01-09T10:39:32;8.00;99.90
27667;DHT22;15074;50.940;5.282;2023-01-09T10:47:26;8.00;99.90
27667;DHT22;15074;50.940;5.282;2023-01-09T10:49:53;7.90;99.90
27667;DHT22;15074;50.940;5.282;2023-01-09T10:52:25;7.90;99.90
27667;DHT22;15074;50.940;5.282;2023-01-09T10:55:01;7.90;99.90
27667;DHT22;15074;50.940;5.282;2023-01-09T10:57:41;7.90;99.90
27667;DHT22;15074;50.940;5.282;2023-01-09T11:00:17;8.00;99.90
27667;DHT22;15074;50.940;5.282;2023-01-09T11:02:43;7.90;99.90
27667;DHT22;15074;50.940;5.282;2023-01-09T11:05:23;7.90;99.90
27667;DHT22;15074;50.940;5.282;2023-01-09T11:08:00;7.90;99.90
27667;DHT22;15074;50.940;5.282;2023-01-09T11:10:52;8.00;99.90
27667;DHT22;15074;50.940;5.282;2023-01-09T11:13:20;8.00;99.90
27667;DHT22;15074;50.940;5.282;2023-01-09T11:15:58;8.20;99.90
27667;DHT22;15074;50.940;5.282;2023-01-09T11:18:24;8.20;99.90
27667;DHT22;15074;50.940;5.282;2023-01-09T11:20:50;8.50;99.90
27667;DHT22;15074;50.940;5.282;2023-01-09T11:23:31;8.50;99.90
27667;DHT22;15074;50.940;5.282;2023-01-09T11:25:59;8.50;99.90
27667;DHT22;15074;50.940;5.282;2023-01-09T11:28:26;8.90;99.90
27667;DHT22;15074;50.940;5.282;2023-01-09T11:30:57;9.00;99.90
27667;DHT22;15074;50.940;5.282;2023-01-09T11:33:33;9.00;99.90
27667;DHT22;15074;50.940;5.282;2023-01-09T11:36:13;8.90;99.90
27667;DHT22;15074;50.940;5.282;2023-01-09T11:38:57;8.80;99.90
27667;DHT22;15074;50.940;5.282;2023-01-09T11:41:32;8.80;99.90
27667;DHT22;15074;50.940;5.282;2023-01-09T11:44:02;8.90;99.90
27667;DHT22;15074;50.940;5.282;2023-01-09T11:46:36;8.90;99.90
27667;DHT22;15074;50.940;5.282;2023-01-09T11:49:23;8.80;99.90
27667;DHT22;15074;50.940;5.282;2023-01-09T11:52:17;8.90;99.90
27667;DHT22;15074;50.940;5.282;2023-01-09T11:57:15;9.00;99.90
27667;DHT22;15074;50.940;5.282;2023-01-09T11:59:41;8.90;99.90
27667;DHT22;15074;50.940;5.282;2023-01-09T12:04:54;8.90;99.90
27667;DHT22;15074;50.940;5.282;2023-01-09T12:18:56;8.30;99.90
27667;DHT22;15074;50.940;5.282;2023-01-09T12:24:38;8.30;99.90
27667;DHT22;15074;50.940;5.282;2023-01-09T12:30:29;8.30;99.90
27667;DHT22;15074;50.940;5.282;2023-01-09T12:36:21;8.20;99.90
27667;DHT22;15074;50.940;5.282;2023-01-09T12:38:54;8.30;99.90
27667;DHT22;15074;50.940;5.282;2023-01-09T12:49:36;8.70;99.90
27667;DHT22;15074;50.940;5.282;2023-01-09T12:52:16;8.60;99.90
27667;DHT22;15074;50.940;5.282;2023-01-09T12:55:24;8.50;99.90
27667;DHT22;15074;50.940;5.282;2023-01-09T12:57:51;8.40;99.90
27667;DHT22;15074;50.940;5.282;2023-01-09T13:00:22;8.30;99.90
27667;DHT22;15074;50.940;5.282;2023-01-09T13:03:12;8.30;99.90
27667;DHT22;15074;50.940;5.282;2023-01-09T13:05:43;8.30;99.90
27667;DHT22;15074;50.940;5.282;2023-01-09T13:10:50;8.20;99.90
27667;DHT22;15074;50.940;5.282;2023-01-09T13:13:43;8.30;99.90
27667;DHT22;15074;50.940;5.282;2023-01-09T13:16:18;8.40;99.90
27667;DHT22;15074;50.940;5.282;2023-01-09T13:18:56;8.30;99.90
27667;DHT22;15074;50.940;5.282;2023-01-09T13:21:23;8.30;99.90
27667;DHT22;15074;50.940;5.282;2023-01-09T13:24:06;8.20;99.90
27667;DHT22;15074;50.940;5.282;2023-01-09T13:26:39;8.30;99.90
27667;DHT22;15074;50.940;5.282;2023-01-09T13:29:08;8.30;99.90
27667;DHT22;15074;50.940;5.282;2023-01-09T13:34:24;8.20;99.90
27667;DHT22;15074;50.940;5.282;2023-01-09T13:36:53;8.30;99.90
27667;DHT22;15074;50.940;5.282;2023-01-09T13:39:23;8.20;99.90
27667;DHT22;15074;50.940;5.282;2023-01-09T13:41:56;8.20;99.90
27667;DHT22;15074;50.940;5.282;2023-01-09T13:44:41;8.10;99.90
27667;DHT22;15074;50.940;5.282;2023-01-09T13:47:25;8.10;99.90
27667;DHT22;15074;50.940;5.282;2023-01-09T13:50:00;8.10;99.90
27667;DHT22;15074;50.940;5.282;2023-01-09T13:52:39;8.00;99.90
27667;DHT22;15074;50.940;5.282;2023-01-09T13:57:44;8.10;99.90
27667;DHT22;15074;50.940;5.282;2023-01-09T14:08:25;8.00;99.90
27667;DHT22;15074;50.940;5.282;2023-01-09T14:10:54;8.00;99.90
27667;DHT22;15074;50.940;5.282;2023-01-09T14:13:42;8.10;99.90
27667;DHT22;15074;50.940;5.282;2023-01-09T14:16:18;8.20;99.90
27667;DHT22;15074;50.940;5.282;2023-01-09T14:18:53;8.20;99.90
27667;DHT22;15074;50.940;5.282;2023-01-09T14:21:22;8.10;99.90
27667;DHT22;15074;50.940;5.282;2023-01-09T14:24:01;8.10;99.90
27667;DHT22;15074;50.940;5.282;2023-01-09T14:26:50;8.10;99.90
27667;DHT22;15074;50.940;5.282;2023-01-09T14:29:39;8.10;99.90
27667;DHT22;15074;50.940;5.282;2023-01-09T14:37:33;8.60;99.90
27667;DHT22;15074;50.940;5.282;2023-01-09T14:40:01;8.90;99.90
27667;DHT22;15074;50.940;5.282;2023-01-09T14:42:28;9.00;99.90
27667;DHT22;15074;50.940;5.282;2023-01-09T14:45:04;9.00;99.90
27667;DHT22;15074;50.940;5.282;2023-01-09T14:50:16;8.70;99.90
27667;DHT22;15074;50.940;5.282;2023-01-09T14:58:33;8.40;99.90
27667;DHT22;15074;50.940;5.282;2023-01-09T15:01:15;8.30;99.90
27667;DHT22;15074;50.940;5.282;2023-01-09T15:03:49;8.30;99.90
27667;DHT22;15074;50.940;5.282;2023-01-09T15:06:21;8.20;99.90
27667;DHT22;15074;50.940;5.282;2023-01-09T15:09:00;8.20;99.90
27667;DHT22;15074;50.940;5.282;2023-01-09T15:11:27;8.20;99.90
27667;DHT22;15074;50.940;5.282;2023-01-09T15:13:54;8.20;99.90
27667;DHT22;15074;50.940;5.282;2023-01-09T15:16:23;8.10;99.90
27667;DHT22;15074;50.940;5.282;2023-01-09T15:18:55;8.10;99.90
27667;DHT22;15074;50.940;5.282;2023-01-09T15:21:24;8.10;99.90
27667;DHT22;15074;50.940;5.282;2023-01-09T15:23:50;8.10;99.90
27667;DHT22;15074;50.940;5.282;2023-01-09T15:26:27;8.10;99.90
27667;DHT22;15074;50.940;5.282;2023-01-09T15:29:04;8.10;99.90
27667;DHT22;15074;50.940;5.282;2023-01-09T15:31:34;8.00;99.90
27667;DHT22;15074;50.940;5.282;2023-01-09T15:34:02;8.00;99.90
27667;DHT22;15074;50.940;5.282;2023-01-09T15:36:29;8.10;99.90
27667;DHT22;15074;50.940;5.282;2023-01-09T15:38:55;8.10;99.90
27667;DHT22;15074;50.940;5.282;2023-01-09T15:41:26;8.10;99.90
27667;DHT22;15074;50.940;5.282;2023-01-09T15:44:34;8.10;99.90
27667;DHT22;15074;50.940;5.282;2023-01-09T15:47:06;8.10;99.90
27667;DHT22;15074;50.940;5.282;2023-01-09T15:49:35;8.10;99.90
27667;DHT22;15074;50.940;5.282;2023-01-09T15:52:02;8.10;99.90
27667;DHT22;15074;50.940;5.282;2023-01-09T15:54:30;8.00;99.90
27667;DHT22;15074;50.940;5.282;2023-01-09T15:59:52;7.90;99.90
27667;DHT22;15074;50.940;5.282;2023-01-09T16:02:20;7.70;99.90
27667;DHT22;15074;50.940;5.282;2023-01-09T16:05:13;7.70;99.90
27667;DHT22;15074;50.940;5.282;2023-01-09T16:07:49;7.70;99.90
27667;DHT22;15074;50.940;5.282;2023-01-09T16:10:23;7.60;99.90
27667;DHT22;15074;50.940;5.282;2023-01-09T16:12:51;7.60;99.90
27667;DHT22;15074;50.940;5.282;2023-01-09T16:15:19;7.50;99.90
27667;DHT22;15074;50.940;5.282;2023-01-09T16:18:14;7.50;99.90
27667;DHT22;15074;50.940;5.282;2023-01-09T16:20:43;7.50;99.90
27667;DHT22;15074;50.940;5.282;2023-01-09T16:23:20;7.50;99.90
27667;DHT22;15074;50.940;5.282;2023-01-09T16:25:47;7.50;99.90
27667;DHT22;15074;50.940;5.282;2023-01-09T16:28:22;7.50;99.90
27667;DHT22;15074;50.940;5.282;2023-01-09T16:33:29;7.50;99.90
27667;DHT22;15074;50.940;5.282;2023-01-09T16:35:55;7.50;99.90
27667;DHT22;15074;50.940;5.282;2023-01-09T16:38:23;7.40;99.90
27667;DHT22;15074;50.940;5.282;2023-01-09T16:41:07;7.40;99.90
27667;DHT22;15074;50.940;5.282;2023-01-09T16:43:56;7.40;99.90
27667;DHT22;15074;50.940;5.282;2023-01-09T16:46:21;7.40;99.90
27667;DHT22;15074;50.940;5.282;2023-01-09T16:48:48;7.50;99.90
27667;DHT22;15074;50.940;5.282;2023-01-09T16:54:18;7.30;99.90
27667;DHT22;15074;50.940;5.282;2023-01-09T16:56:46;7.30;99.90
27667;DHT22;15074;50.940;5.282;2023-01-09T17:09:49;7.10;99.90
27667;DHT22;15074;50.940;5.282;2023-01-09T17:22:48;7.00;99.90
27667;DHT22;15074;50.940;5.282;2023-01-09T17:28:36;7.00;99.90
27667;DHT22;15074;50.940;5.282;2023-01-09T17:31:08;7.10;99.90
